sensor_id;sensor_type;location;lat;lon;timestamp;P1;durP1;ratioP1;P2;durP2;ratioP2
19800;SDS011;10060;48.274;12.214;2022-11-15T00:01:40;26.30;;;16.73;;
19800;SDS011;10060;48.274;12.214;2022-11-15T00:04:42;26.30;;;15.83;;
19800;SDS011;10060;48.274;12.214;2022-11-15T00:07:44;28.33;;;16.20;;
19800;SDS011;10060;48.274;12.214;2022-11-15T00:10:53;26.07;;;15.87;;
19800;SDS011;10060;48.274;12.214;2022-11-15T00:13:56;23.03;;;14.03;;
19800;SDS011;10060;48.274;12.214;2022-11-15T00:16:59;20.37;;;12.03;;
19800;SDS011;10060;48.274;12.214;2022-11-15T00:20:02;24.17;;;13.50;;
19800;SDS011;10060;48.274;12.214;2022-11-15T00:23:04;21.07;;;13.17;;
19800;SDS011;10060;48.274;12.214;2022-11-15T00:26:07;20.40;;;12.13;;
19800;SDS011;10060;48.274;12.214;2022-11-15T00:29:12;22.00;;;12.60;;
19800;SDS011;10060;48.274;12.214;2022-11-15T00:32:16;19.70;;;12.80;;
19800;SDS011;10060;48.274;12.214;2022-11-15T00:35:18;23.43;;;13.27;;
19800;SDS011;10060;48.274;12.214;2022-11-15T00:38:20;22.17;;;14.27;;
19800;SDS011;10060;48.274;12.214;2022-11-15T00:41:22;22.40;;;14.80;;
19800;SDS011;10060;48.274;12.214;2022-11-15T00:44:24;23.20;;;14.57;;
19800;SDS011;10060;48.274;12.214;2022-11-15T00:47:28;24.70;;;14.20;;
19800;SDS011;10060;48.274;12.214;2022-11-15T00:50:30;23.33;;;13.90;;
19800;SDS011;10060;48.274;12.214;2022-11-15T00:53:32;23.33;;;14.17;;
19800;SDS011;10060;48.274;12.214;2022-11-15T00:56:34;22.93;;;12.83;;
19800;SDS011;10060;48.274;12.214;2022-11-15T00:59:36;23.30;;;14.17;;
19800;SDS011;10060;48.274;12.214;2022-11-15T01:02:39;22.20;;;13.33;;
19800;SDS011;10060;48.274;12.214;2022-11-15T01:05:42;25.90;;;13.53;;
19800;SDS011;10060;48.274;12.214;2022-11-15T01:08:44;22.50;;;13.43;;
19800;SDS011;10060;48.274;12.214;2022-11-15T01:11:46;26.43;;;13.57;;
19800;SDS011;10060;48.274;12.214;2022-11-15T01:14:49;19.63;;;13.07;;
19800;SDS011;10060;48.274;12.214;2022-11-15T01:17:52;21.43;;;13.50;;
19800;SDS011;10060;48.274;12.214;2022-11-15T01:20:54;21.20;;;12.47;;
19800;SDS011;10060;48.274;12.214;2022-11-15T01:23:56;21.87;;;12.20;;
19800;SDS011;10060;48.274;12.214;2022-11-15T01:26:59;17.90;;;11.77;;
19800;SDS011;10060;48.274;12.214;2022-11-15T01:30:01;17.13;;;12.07;;
19800;SDS011;10060;48.274;12.214;2022-11-15T01:33:05;19.97;;;12.53;;
19800;SDS011;10060;48.274;12.214;2022-11-15T01:36:08;19.87;;;11.87;;
19800;SDS011;10060;48.274;12.214;2022-11-15T01:39:10;17.20;;;11.40;;
19800;SDS011;10060;48.274;12.214;2022-11-15T01:42:13;21.13;;;12.00;;
19800;SDS011;10060;48.274;12.214;2022-11-15T01:45:15;21.97;;;12.43;;
19800;SDS011;10060;48.274;12.214;2022-11-15T01:48:19;18.67;;;12.03;;
19800;SDS011;10060;48.274;12.214;2022-11-15T01:51:22;20.27;;;12.93;;
19800;SDS011;10060;48.274;12.214;2022-11-15T01:54:25;20.50;;;12.83;;
19800;SDS011;10060;48.274;12.214;2022-11-15T01:57:29;20.17;;;12.27;;
19800;SDS011;10060;48.274;12.214;2022-11-15T02:00:31;20.67;;;12.83;;
19800;SDS011;10060;48.274;12.214;2022-11-15T02:03:36;18.97;;;11.73;;
19800;SDS011;10060;48.274;12.214;2022-11-15T02:06:40;15.37;;;10.23;;
19800;SDS011;10060;48.274;12.214;2022-11-15T02:09:43;14.53;;;10.90;;
19800;SDS011;10060;48.274;12.214;2022-11-15T02:12:45;14.87;;;10.90;;
19800;SDS011;10060;48.274;12.214;2022-11-15T02:15:49;17.50;;;11.30;;
19800;SDS011;10060;48.274;12.214;2022-11-15T02:18:57;17.27;;;11.73;;
19800;SDS011;10060;48.274;12.214;2022-11-15T02:22:04;20.77;;;11.50;;
19800;SDS011;10060;48.274;12.214;2022-11-15T02:25:18;16.27;;;11.07;;
19800;SDS011;10060;48.274;12.214;2022-11-15T02:28:28;21.43;;;12.00;;
19800;SDS011;10060;48.274;12.214;2022-11-15T02:31:39;18.37;;;11.97;;
19800;SDS011;10060;48.274;12.214;2022-11-15T02:34:45;18.60;;;11.87;;
19800;SDS011;10060;48.274;12.214;2022-11-15T02:37:51;16.17;;;10.83;;
19800;SDS011;10060;48.274;12.214;2022-11-15T02:40:56;21.07;;;12.17;;
19800;SDS011;10060;48.274;12.214;2022-11-15T02:43:59;17.93;;;12.03;;
19800;SDS011;10060;48.274;12.214;2022-11-15T02:47:03;17.23;;;12.77;;
19800;SDS011;10060;48.274;12.214;2022-11-15T02:50:16;15.83;;;11.23;;
19800;SDS011;10060;48.274;12.214;2022-11-15T02:53:23;15.33;;;10.47;;
19800;SDS011;10060;48.274;12.214;2022-11-15T02:56:25;15.93;;;10.53;;
19800;SDS011;10060;48.274;12.214;2022-11-15T03:03:05;14.77;;;9.90;;
19800;SDS011;10060;48.274;12.214;2022-11-15T03:06:14;19.60;;;11.47;;
19800;SDS011;10060;48.274;12.214;2022-11-15T03:09:19;14.93;;;10.53;;
19800;SDS011;10060;48.274;12.214;2022-11-15T03:12:27;17.93;;;10.43;;
19800;SDS011;10060;48.274;12.214;2022-11-15T03:15:31;16.37;;;10.20;;
19800;SDS011;10060;48.274;12.214;2022-11-15T03:18:35;16.90;;;10.57;;
19800;SDS011;10060;48.274;12.214;2022-11-15T03:21:39;17.80;;;11.67;;
19800;SDS011;10060;48.274;12.214;2022-11-15T03:24:41;18.27;;;11.97;;
19800;SDS011;10060;48.274;12.214;2022-11-15T03:27:46;18.60;;;12.40;;
19800;SDS011;10060;48.274;12.214;2022-11-15T03:30:49;16.27;;;10.73;;
19800;SDS011;10060;48.274;12.214;2022-11-15T03:33:55;18.47;;;12.63;;
19800;SDS011;10060;48.274;12.214;2022-11-15T03:36:59;18.50;;;12.40;;
19800;SDS011;10060;48.274;12.214;2022-11-15T03:40:01;18.17;;;11.00;;
19800;SDS011;10060;48.274;12.214;2022-11-15T03:43:04;18.77;;;11.93;;
19800;SDS011;10060;48.274;12.214;2022-11-15T03:46:10;20.03;;;12.40;;
19800;SDS011;10060;48.274;12.214;2022-11-15T03:49:17;18.20;;;11.80;;
19800;SDS011;10060;48.274;12.214;2022-11-15T03:52:20;20.17;;;11.90;;
19800;SDS011;10060;48.274;12.214;2022-11-15T03:55:22;17.03;;;11.07;;
19800;SDS011;10060;48.274;12.214;2022-11-15T03:58:25;15.20;;;11.13;;
19800;SDS011;10060;48.274;12.214;2022-11-15T04:01:27;15.77;;;11.70;;
19800;SDS011;10060;48.274;12.214;2022-11-15T04:04:30;16.97;;;10.73;;
19800;SDS011;10060;48.274;12.214;2022-11-15T04:07:32;16.50;;;11.47;;
19800;SDS011;10060;48.274;12.214;2022-11-15T04:10:34;16.43;;;11.70;;
19800;SDS011;10060;48.274;12.214;2022-11-15T04:13:36;15.77;;;10.70;;
19800;SDS011;10060;48.274;12.214;2022-11-15T04:16:39;14.97;;;11.07;;
19800;SDS011;10060;48.274;12.214;2022-11-15T04:19:42;15.70;;;11.00;;
19800;SDS011;10060;48.274;12.214;2022-11-15T04:23:03;17.60;;;11.87;;
19800;SDS011;10060;48.274;12.214;2022-11-15T04:26:23;15.27;;;10.63;;
19800;SDS011;10060;48.274;12.214;2022-11-15T04:29:25;18.80;;;12.17;;
19800;SDS011;10060;48.274;12.214;2022-11-15T04:32:36;19.43;;;12.20;;
19800;SDS011;10060;48.274;12.214;2022-11-15T04:35:41;19.37;;;11.43;;
19800;SDS011;10060;48.274;12.214;2022-11-15T04:38:43;17.77;;;11.53;;
19800;SDS011;10060;48.274;12.214;2022-11-15T04:41:45;18.43;;;11.93;;
19800;SDS011;10060;48.274;12.214;2022-11-15T04:44:47;14.70;;;10.33;;
19800;SDS011;10060;48.274;12.214;2022-11-15T04:47:49;16.73;;;11.33;;
19800;SDS011;10060;48.274;12.214;2022-11-15T04:50:53;17.17;;;10.93;;
19800;SDS011;10060;48.274;12.214;2022-11-15T04:53:55;14.33;;;10.13;;
19800;SDS011;10060;48.274;12.214;2022-11-15T04:56:57;16.13;;;10.33;;
19800;SDS011;10060;48.274;12.214;2022-11-15T04:59:59;19.90;;;11.53;;
19800;SDS011;10060;48.274;12.214;2022-11-15T05:03:01;14.30;;;10.53;;
19800;SDS011;10060;48.274;12.214;2022-11-15T05:06:22;15.73;;;10.50;;
19800;SDS011;10060;48.274;12.214;2022-11-15T05:09:25;18.07;;;10.93;;
19800;SDS011;10060;48.274;12.214;2022-11-15T05:12:27;14.93;;;10.30;;
19800;SDS011;10060;48.274;12.214;2022-11-15T05:15:29;14.37;;;10.47;;
19800;SDS011;10060;48.274;12.214;2022-11-15T05:18:31;13.07;;;9.63;;
19800;SDS011;10060;48.274;12.214;2022-11-15T05:21:35;13.90;;;9.97;;
19800;SDS011;10060;48.274;12.214;2022-11-15T05:24:37;15.87;;;11.03;;
19800;SDS011;10060;48.274;12.214;2022-11-15T05:27:39;14.50;;;10.47;;
19800;SDS011;10060;48.274;12.214;2022-11-15T05:30:41;16.03;;;10.70;;
19800;SDS011;10060;48.274;12.214;2022-11-15T05:33:43;15.30;;;10.43;;
19800;SDS011;10060;48.274;12.214;2022-11-15T05:36:47;14.50;;;10.87;;
19800;SDS011;10060;48.274;12.214;2022-11-15T05:39:50;14.60;;;10.27;;
19800;SDS011;10060;48.274;12.214;2022-11-15T05:42:52;19.13;;;11.03;;
19800;SDS011;10060;48.274;12.214;2022-11-15T05:45:54;17.83;;;11.03;;
19800;SDS011;10060;48.274;12.214;2022-11-15T05:48:56;15.73;;;11.57;;
19800;SDS011;10060;48.274;12.214;2022-11-15T05:52:00;17.30;;;12.70;;
19800;SDS011;10060;48.274;12.214;2022-11-15T05:55:04;16.50;;;11.23;;
19800;SDS011;10060;48.274;12.214;2022-11-15T05:58:07;20.60;;;12.20;;
19800;SDS011;10060;48.274;12.214;2022-11-15T06:01:10;22.47;;;12.43;;
19800;SDS011;10060;48.274;12.214;2022-11-15T06:04:12;20.77;;;12.87;;
19800;SDS011;10060;48.274;12.214;2022-11-15T06:07:15;19.53;;;11.93;;
19800;SDS011;10060;48.274;12.214;2022-11-15T06:10:18;19.20;;;12.53;;
19800;SDS011;10060;48.274;12.214;2022-11-15T06:13:20;20.67;;;12.63;;
19800;SDS011;10060;48.274;12.214;2022-11-15T06:16:22;16.97;;;11.83;;
19800;SDS011;10060;48.274;12.214;2022-11-15T06:19:24;16.63;;;11.63;;
19800;SDS011;10060;48.274;12.214;2022-11-15T06:22:28;16.53;;;12.00;;
19800;SDS011;10060;48.274;12.214;2022-11-15T06:25:30;20.73;;;12.13;;
19800;SDS011;10060;48.274;12.214;2022-11-15T06:28:32;17.43;;;11.80;;
19800;SDS011;10060;48.274;12.214;2022-11-15T06:31:34;17.27;;;12.03;;
19800;SDS011;10060;48.274;12.214;2022-11-15T06:34:37;19.60;;;12.97;;
19800;SDS011;10060;48.274;12.214;2022-11-15T06:37:40;24.37;;;13.47;;
19800;SDS011;10060;48.274;12.214;2022-11-15T06:40:42;22.37;;;14.50;;
19800;SDS011;10060;48.274;12.214;2022-11-15T06:43:44;22.43;;;13.00;;
19800;SDS011;10060;48.274;12.214;2022-11-15T06:46:46;24.13;;;14.07;;
19800;SDS011;10060;48.274;12.214;2022-11-15T06:49:49;23.97;;;14.33;;
19800;SDS011;10060;48.274;12.214;2022-11-15T06:52:52;22.43;;;14.50;;
19800;SDS011;10060;48.274;12.214;2022-11-15T06:55:57;21.93;;;13.33;;
19800;SDS011;10060;48.274;12.214;2022-11-15T06:58:59;26.47;;;14.07;;
19800;SDS011;10060;48.274;12.214;2022-11-15T07:02:02;22.43;;;15.53;;
19800;SDS011;10060;48.274;12.214;2022-11-15T07:05:04;24.03;;;15.00;;
19800;SDS011;10060;48.274;12.214;2022-11-15T07:08:08;23.57;;;13.67;;
19800;SDS011;10060;48.274;12.214;2022-11-15T07:11:10;17.90;;;12.50;;
19800;SDS011;10060;48.274;12.214;2022-11-15T07:14:12;19.37;;;11.93;;
19800;SDS011;10060;48.274;12.214;2022-11-15T07:17:14;20.80;;;12.17;;
19800;SDS011;10060;48.274;12.214;2022-11-15T07:20:16;21.30;;;12.73;;
19800;SDS011;10060;48.274;12.214;2022-11-15T07:23:20;20.20;;;13.97;;
19800;SDS011;10060;48.274;12.214;2022-11-15T07:26:22;24.40;;;14.10;;
19800;SDS011;10060;48.274;12.214;2022-11-15T07:29:24;26.07;;;14.67;;
19800;SDS011;10060;48.274;12.214;2022-11-15T07:32:26;24.67;;;15.00;;
19800;SDS011;10060;48.274;12.214;2022-11-15T07:35:29;22.23;;;13.57;;
19800;SDS011;10060;48.274;12.214;2022-11-15T07:38:33;19.00;;;12.37;;
19800;SDS011;10060;48.274;12.214;2022-11-15T07:41:35;18.47;;;12.03;;
19800;SDS011;10060;48.274;12.214;2022-11-15T07:44:38;19.70;;;11.90;;
19800;SDS011;10060;48.274;12.214;2022-11-15T07:47:40;17.70;;;11.60;;
19800;SDS011;10060;48.274;12.214;2022-11-15T07:50:42;21.87;;;13.00;;
19800;SDS011;10060;48.274;12.214;2022-11-15T07:53:46;19.80;;;11.97;;
19800;SDS011;10060;48.274;12.214;2022-11-15T07:56:48;24.20;;;12.37;;
19800;SDS011;10060;48.274;12.214;2022-11-15T07:59:50;30.67;;;13.67;;
19800;SDS011;10060;48.274;12.214;2022-11-15T08:02:52;35.17;;;14.87;;
19800;SDS011;10060;48.274;12.214;2022-11-15T08:05:54;22.40;;;14.90;;
19800;SDS011;10060;48.274;12.214;2022-11-15T08:08:58;21.70;;;14.10;;
19800;SDS011;10060;48.274;12.214;2022-11-15T08:12:00;18.33;;;13.70;;
19800;SDS011;10060;48.274;12.214;2022-11-15T08:15:02;18.27;;;13.20;;
19800;SDS011;10060;48.274;12.214;2022-11-15T08:18:09;18.97;;;14.27;;
19800;SDS011;10060;48.274;12.214;2022-11-15T08:21:11;20.97;;;13.97;;
19800;SDS011;10060;48.274;12.214;2022-11-15T08:24:16;23.83;;;16.60;;
19800;SDS011;10060;48.274;12.214;2022-11-15T08:27:18;23.50;;;14.97;;
19800;SDS011;10060;48.274;12.214;2022-11-15T08:30:21;24.73;;;16.10;;
19800;SDS011;10060;48.274;12.214;2022-11-15T08:33:23;26.07;;;15.97;;
19800;SDS011;10060;48.274;12.214;2022-11-15T08:36:26;20.37;;;14.53;;
19800;SDS011;10060;48.274;12.214;2022-11-15T08:39:29;22.30;;;14.63;;
19800;SDS011;10060;48.274;12.214;2022-11-15T08:42:33;21.53;;;14.80;;
19800;SDS011;10060;48.274;12.214;2022-11-15T08:45:35;34.47;;;15.80;;
19800;SDS011;10060;48.274;12.214;2022-11-15T08:48:37;22.87;;;15.80;;
19800;SDS011;10060;48.274;12.214;2022-11-15T08:51:39;22.70;;;15.57;;
19800;SDS011;10060;48.274;12.214;2022-11-15T08:54:41;26.80;;;16.20;;
19800;SDS011;10060;48.274;12.214;2022-11-15T08:57:45;26.93;;;16.67;;
19800;SDS011;10060;48.274;12.214;2022-11-15T09:00:47;28.70;;;17.90;;
19800;SDS011;10060;48.274;12.214;2022-11-15T09:03:49;34.77;;;20.77;;
19800;SDS011;10060;48.274;12.214;2022-11-15T09:06:52;36.33;;;21.40;;
19800;SDS011;10060;48.274;12.214;2022-11-15T09:09:54;48.63;;;21.20;;
19800;SDS011;10060;48.274;12.214;2022-11-15T09:12:58;41.07;;;19.43;;
19800;SDS011;10060;48.274;12.214;2022-11-15T09:16:00;34.40;;;20.07;;
19800;SDS011;10060;48.274;12.214;2022-11-15T09:19:03;41.10;;;22.50;;
19800;SDS011;10060;48.274;12.214;2022-11-15T09:22:05;45.93;;;21.90;;
19800;SDS011;10060;48.274;12.214;2022-11-15T09:25:08;51.23;;;22.67;;
19800;SDS011;10060;48.274;12.214;2022-11-15T09:28:12;51.77;;;23.07;;
19800;SDS011;10060;48.274;12.214;2022-11-15T09:31:14;37.57;;;19.40;;
19800;SDS011;10060;48.274;12.214;2022-11-15T09:34:16;33.53;;;19.20;;
19800;SDS011;10060;48.274;12.214;2022-11-15T09:37:19;32.47;;;18.77;;
19800;SDS011;10060;48.274;12.214;2022-11-15T09:40:21;42.07;;;19.27;;
19800;SDS011;10060;48.274;12.214;2022-11-15T09:43:27;37.63;;;18.43;;
19800;SDS011;10060;48.274;12.214;2022-11-15T09:46:32;28.87;;;18.63;;
19800;SDS011;10060;48.274;12.214;2022-11-15T09:49:37;34.50;;;18.80;;
19800;SDS011;10060;48.274;12.214;2022-11-15T09:52:41;34.40;;;18.47;;
19800;SDS011;10060;48.274;12.214;2022-11-15T09:55:46;36.20;;;19.17;;
19800;SDS011;10060;48.274;12.214;2022-11-15T09:58:53;33.03;;;18.13;;
19800;SDS011;10060;48.274;12.214;2022-11-15T10:01:57;32.83;;;18.77;;
19800;SDS011;10060;48.274;12.214;2022-11-15T10:05:04;31.20;;;19.93;;
19800;SDS011;10060;48.274;12.214;2022-11-15T10:08:12;32.87;;;20.93;;
19800;SDS011;10060;48.274;12.214;2022-11-15T10:11:15;25.90;;;17.43;;
19800;SDS011;10060;48.274;12.214;2022-11-15T10:14:21;27.30;;;17.57;;
19800;SDS011;10060;48.274;12.214;2022-11-15T10:17:34;25.73;;;17.30;;
19800;SDS011;10060;48.274;12.214;2022-11-15T10:20:42;24.93;;;16.03;;
19800;SDS011;10060;48.274;12.214;2022-11-15T10:23:46;22.73;;;14.97;;
19800;SDS011;10060;48.274;12.214;2022-11-15T10:26:49;24.07;;;16.17;;
19800;SDS011;10060;48.274;12.214;2022-11-15T10:29:53;25.07;;;15.70;;
19800;SDS011;10060;48.274;12.214;2022-11-15T10:32:55;30.50;;;16.17;;
19800;SDS011;10060;48.274;12.214;2022-11-15T10:39:18;22.63;;;14.47;;
19800;SDS011;10060;48.274;12.214;2022-11-15T10:42:25;24.60;;;14.27;;
19800;SDS011;10060;48.274;12.214;2022-11-15T10:45:30;23.23;;;14.77;;
19800;SDS011;10060;48.274;12.214;2022-11-15T10:48:32;22.83;;;13.90;;
19800;SDS011;10060;48.274;12.214;2022-11-15T10:51:35;21.57;;;12.43;;
19800;SDS011;10060;48.274;12.214;2022-11-15T10:54:42;21.90;;;11.83;;
19800;SDS011;10060;48.274;12.214;2022-11-15T10:57:48;20.57;;;11.77;;
19800;SDS011;10060;48.274;12.214;2022-11-15T11:00:53;22.03;;;11.70;;
19800;SDS011;10060;48.274;12.214;2022-11-15T11:03:59;17.43;;;10.13;;
19800;SDS011;10060;48.274;12.214;2022-11-15T11:07:01;15.93;;;10.20;;
19800;SDS011;10060;48.274;12.214;2022-11-15T11:10:04;17.30;;;11.80;;
19800;SDS011;10060;48.274;12.214;2022-11-15T11:13:12;17.00;;;10.20;;
19800;SDS011;10060;48.274;12.214;2022-11-15T11:16:30;13.70;;;9.87;;
19800;SDS011;10060;48.274;12.214;2022-11-15T11:19:43;16.50;;;9.70;;
19800;SDS011;10060;48.274;12.214;2022-11-15T11:22:50;17.53;;;10.07;;
19800;SDS011;10060;48.274;12.214;2022-11-15T11:26:01;17.60;;;9.57;;
19800;SDS011;10060;48.274;12.214;2022-11-15T11:29:19;16.70;;;10.13;;
19800;SDS011;10060;48.274;12.214;2022-11-15T11:32:28;13.77;;;10.00;;
19800;SDS011;10060;48.274;12.214;2022-11-15T11:35:36;13.73;;;8.90;;
19800;SDS011;10060;48.274;12.214;2022-11-15T11:38:44;15.90;;;10.17;;
19800;SDS011;10060;48.274;12.214;2022-11-15T11:41:53;23.10;;;10.10;;
19800;SDS011;10060;48.274;12.214;2022-11-15T11:44:59;15.73;;;11.33;;
19800;SDS011;10060;48.274;12.214;2022-11-15T11:48:08;17.97;;;11.17;;
19800;SDS011;10060;48.274;12.214;2022-11-15T11:51:16;18.73;;;9.87;;
19800;SDS011;10060;48.274;12.214;2022-11-15T11:54:20;20.37;;;10.57;;
19800;SDS011;10060;48.274;12.214;2022-11-15T11:57:25;14.47;;;10.00;;
19800;SDS011;10060;48.274;12.214;2022-11-15T12:00:30;16.57;;;10.30;;
19800;SDS011;10060;48.274;12.214;2022-11-15T12:03:40;15.53;;;10.07;;
19800;SDS011;10060;48.274;12.214;2022-11-15T12:06:45;21.27;;;10.50;;
19800;SDS011;10060;48.274;12.214;2022-11-15T12:09:50;16.53;;;9.90;;
19800;SDS011;10060;48.274;12.214;2022-11-15T12:12:55;15.43;;;10.37;;
19800;SDS011;10060;48.274;12.214;2022-11-15T12:16:02;17.07;;;10.50;;
19800;SDS011;10060;48.274;12.214;2022-11-15T12:19:08;16.97;;;10.83;;
19800;SDS011;10060;48.274;12.214;2022-11-15T12:22:11;13.63;;;9.93;;
19800;SDS011;10060;48.274;12.214;2022-11-15T12:25:16;18.77;;;11.10;;
19800;SDS011;10060;48.274;12.214;2022-11-15T12:28:22;17.43;;;10.63;;
19800;SDS011;10060;48.274;12.214;2022-11-15T12:31:30;15.70;;;9.83;;
19800;SDS011;10060;48.274;12.214;2022-11-15T12:34:44;15.77;;;9.17;;
19800;SDS011;10060;48.274;12.214;2022-11-15T12:37:48;15.57;;;10.00;;
19800;SDS011;10060;48.274;12.214;2022-11-15T12:44:10;11.40;;;8.23;;
19800;SDS011;10060;48.274;12.214;2022-11-15T12:47:22;13.67;;;8.17;;
19800;SDS011;10060;48.274;12.214;2022-11-15T12:53:47;15.67;;;9.50;;
19800;SDS011;10060;48.274;12.214;2022-11-15T12:56:59;13.63;;;8.80;;
19800;SDS011;10060;48.274;12.214;2022-11-15T13:07:01;13.10;;;8.50;;
19800;SDS011;10060;48.274;12.214;2022-11-15T13:10:27;12.60;;;7.00;;
19800;SDS011;10060;48.274;12.214;2022-11-15T13:13:41;11.77;;;7.20;;
19800;SDS011;10060;48.274;12.214;2022-11-15T13:16:44;12.20;;;6.80;;
19800;SDS011;10060;48.274;12.214;2022-11-15T13:19:46;12.17;;;6.87;;
19800;SDS011;10060;48.274;12.214;2022-11-15T13:22:49;10.33;;;7.00;;
19800;SDS011;10060;48.274;12.214;2022-11-15T13:29:17;13.20;;;7.07;;
19800;SDS011;10060;48.274;12.214;2022-11-15T13:32:20;18.30;;;8.77;;
19800;SDS011;10060;48.274;12.214;2022-11-15T13:35:24;11.33;;;7.00;;
19800;SDS011;10060;48.274;12.214;2022-11-15T13:38:27;14.90;;;7.33;;
19800;SDS011;10060;48.274;12.214;2022-11-15T13:41:30;10.47;;;7.00;;
19800;SDS011;10060;48.274;12.214;2022-11-15T13:44:34;11.93;;;6.43;;
19800;SDS011;10060;48.274;12.214;2022-11-15T13:47:36;10.37;;;6.67;;
19800;SDS011;10060;48.274;12.214;2022-11-15T13:50:38;8.40;;;6.27;;
19800;SDS011;10060;48.274;12.214;2022-11-15T13:53:42;9.10;;;5.87;;
19800;SDS011;10060;48.274;12.214;2022-11-15T13:56:47;14.27;;;6.80;;
19800;SDS011;10060;48.274;12.214;2022-11-15T13:59:52;8.13;;;6.10;;
19800;SDS011;10060;48.274;12.214;2022-11-15T14:02:55;13.67;;;6.70;;
19800;SDS011;10060;48.274;12.214;2022-11-15T14:06:08;8.47;;;6.70;;
19800;SDS011;10060;48.274;12.214;2022-11-15T14:12:35;9.10;;;6.23;;
19800;SDS011;10060;48.274;12.214;2022-11-15T14:15:39;11.60;;;6.63;;
19800;SDS011;10060;48.274;12.214;2022-11-15T14:18:43;9.37;;;7.00;;
19800;SDS011;10060;48.274;12.214;2022-11-15T14:25:15;11.43;;;7.57;;
19800;SDS011;10060;48.274;12.214;2022-11-15T14:28:28;10.33;;;7.23;;
19800;SDS011;10060;48.274;12.214;2022-11-15T14:31:32;11.30;;;7.30;;
19800;SDS011;10060;48.274;12.214;2022-11-15T14:34:34;11.93;;;7.17;;
19800;SDS011;10060;48.274;12.214;2022-11-15T14:37:36;10.27;;;6.73;;
19800;SDS011;10060;48.274;12.214;2022-11-15T14:40:38;10.93;;;7.30;;
19800;SDS011;10060;48.274;12.214;2022-11-15T14:43:40;11.50;;;7.17;;
19800;SDS011;10060;48.274;12.214;2022-11-15T14:46:44;12.53;;;7.50;;
19800;SDS011;10060;48.274;12.214;2022-11-15T14:49:47;12.00;;;8.33;;
19800;SDS011;10060;48.274;12.214;2022-11-15T14:52:49;11.43;;;8.17;;
19800;SDS011;10060;48.274;12.214;2022-11-15T14:55:52;9.73;;;7.60;;
19800;SDS011;10060;48.274;12.214;2022-11-15T14:58:54;11.40;;;8.17;;
19800;SDS011;10060;48.274;12.214;2022-11-15T15:01:59;13.97;;;8.53;;
19800;SDS011;10060;48.274;12.214;2022-11-15T15:05:06;12.73;;;8.47;;
19800;SDS011;10060;48.274;12.214;2022-11-15T15:08:11;13.23;;;8.27;;
19800;SDS011;10060;48.274;12.214;2022-11-15T15:11:14;13.47;;;9.00;;
19800;SDS011;10060;48.274;12.214;2022-11-15T15:14:16;12.30;;;8.57;;
19800;SDS011;10060;48.274;12.214;2022-11-15T15:17:20;20.87;;;9.53;;
19800;SDS011;10060;48.274;12.214;2022-11-15T15:20:22;11.83;;;8.10;;
19800;SDS011;10060;48.274;12.214;2022-11-15T15:23:24;13.67;;;7.53;;
19800;SDS011;10060;48.274;12.214;2022-11-15T15:26:29;13.07;;;8.87;;
19800;SDS011;10060;48.274;12.214;2022-11-15T15:29:33;22.10;;;12.07;;
19800;SDS011;10060;48.274;12.214;2022-11-15T15:32:37;51.60;;;28.53;;
19800;SDS011;10060;48.274;12.214;2022-11-15T15:35:39;24.67;;;15.00;;
19800;SDS011;10060;48.274;12.214;2022-11-15T15:38:41;17.47;;;11.47;;
19800;SDS011;10060;48.274;12.214;2022-11-15T15:41:43;16.70;;;9.90;;
19800;SDS011;10060;48.274;12.214;2022-11-15T15:44:45;13.70;;;9.10;;
19800;SDS011;10060;48.274;12.214;2022-11-15T15:47:49;15.50;;;8.13;;
19800;SDS011;10060;48.274;12.214;2022-11-15T15:50:52;12.63;;;7.83;;
19800;SDS011;10060;48.274;12.214;2022-11-15T15:53:54;10.50;;;7.43;;
19800;SDS011;10060;48.274;12.214;2022-11-15T15:56:58;14.30;;;9.37;;
19800;SDS011;10060;48.274;12.214;2022-11-15T16:00:00;13.07;;;8.93;;
19800;SDS011;10060;48.274;12.214;2022-11-15T16:03:03;13.17;;;8.60;;
19800;SDS011;10060;48.274;12.214;2022-11-15T16:09:22;15.73;;;10.07;;
19800;SDS011;10060;48.274;12.214;2022-11-15T16:12:45;13.60;;;9.50;;
19800;SDS011;10060;48.274;12.214;2022-11-15T16:15:47;18.53;;;10.00;;
19800;SDS011;10060;48.274;12.214;2022-11-15T16:18:52;16.90;;;10.53;;
19800;SDS011;10060;48.274;12.214;2022-11-15T16:21:54;16.73;;;10.63;;
19800;SDS011;10060;48.274;12.214;2022-11-15T16:24:56;17.13;;;10.87;;
19800;SDS011;10060;48.274;12.214;2022-11-15T16:27:58;18.10;;;10.47;;
19800;SDS011;10060;48.274;12.214;2022-11-15T16:31:01;19.70;;;12.03;;
19800;SDS011;10060;48.274;12.214;2022-11-15T16:34:05;20.00;;;13.00;;
19800;SDS011;10060;48.274;12.214;2022-11-15T16:37:08;20.60;;;12.33;;
19800;SDS011;10060;48.274;12.214;2022-11-15T16:40:24;17.10;;;11.70;;
19800;SDS011;10060;48.274;12.214;2022-11-15T16:43:27;21.93;;;12.03;;
19800;SDS011;10060;48.274;12.214;2022-11-15T16:46:29;19.20;;;12.63;;
19800;SDS011;10060;48.274;12.214;2022-11-15T16:49:33;19.70;;;10.80;;
19800;SDS011;10060;48.274;12.214;2022-11-15T16:52:35;16.43;;;11.17;;
19800;SDS011;10060;48.274;12.214;2022-11-15T16:55:37;21.40;;;12.07;;
19800;SDS011;10060;48.274;12.214;2022-11-15T16:58:39;20.23;;;12.63;;
19800;SDS011;10060;48.274;12.214;2022-11-15T17:01:41;21.37;;;11.90;;
19800;SDS011;10060;48.274;12.214;2022-11-15T17:04:50;16.70;;;11.33;;
19800;SDS011;10060;48.274;12.214;2022-11-15T17:07:52;17.67;;;11.03;;
19800;SDS011;10060;48.274;12.214;2022-11-15T17:10:55;54.43;;;28.37;;
19800;SDS011;10060;48.274;12.214;2022-11-15T17:13:57;46.77;;;24.63;;
19800;SDS011;10060;48.274;12.214;2022-11-15T17:17:00;32.70;;;18.60;;
19800;SDS011;10060;48.274;12.214;2022-11-15T17:20:04;28.10;;;15.50;;
19800;SDS011;10060;48.274;12.214;2022-11-15T17:23:10;19.87;;;12.93;;
19800;SDS011;10060;48.274;12.214;2022-11-15T17:26:14;21.87;;;12.77;;
19800;SDS011;10060;48.274;12.214;2022-11-15T17:29:16;21.13;;;12.70;;
19800;SDS011;10060;48.274;12.214;2022-11-15T17:32:18;19.80;;;12.07;;
19800;SDS011;10060;48.274;12.214;2022-11-15T17:35:22;19.13;;;11.90;;
19800;SDS011;10060;48.274;12.214;2022-11-15T17:38:24;17.93;;;11.10;;
19800;SDS011;10060;48.274;12.214;2022-11-15T17:41:26;22.90;;;13.00;;
19800;SDS011;10060;48.274;12.214;2022-11-15T17:44:28;20.40;;;12.30;;
19800;SDS011;10060;48.274;12.214;2022-11-15T17:47:31;19.87;;;11.90;;
19800;SDS011;10060;48.274;12.214;2022-11-15T17:50:34;18.80;;;11.40;;
19800;SDS011;10060;48.274;12.214;2022-11-15T17:53:37;20.27;;;11.37;;
19800;SDS011;10060;48.274;12.214;2022-11-15T17:56:39;19.20;;;10.73;;
19800;SDS011;10060;48.274;12.214;2022-11-15T17:59:42;17.63;;;10.30;;
19800;SDS011;10060;48.274;12.214;2022-11-15T18:02:44;17.17;;;10.87;;
19800;SDS011;10060;48.274;12.214;2022-11-15T18:05:47;21.73;;;12.77;;
19800;SDS011;10060;48.274;12.214;2022-11-15T18:08:50;24.27;;;13.83;;
19800;SDS011;10060;48.274;12.214;2022-11-15T18:11:52;23.37;;;13.00;;
19800;SDS011;10060;48.274;12.214;2022-11-15T18:14:55;20.93;;;12.20;;
19800;SDS011;10060;48.274;12.214;2022-11-15T18:17:59;20.13;;;12.80;;